Terminal Aerodrome Forecast
Issued by NWS

Home | Current Version | Previous Version | Text Only | Print | Product List | Glossary On
Versions: 1 2 3 4 5 6 7 8 9 10 11 12 13
779
FTUS43 KEAX 241622 AAA
TAFSTJ
TAF AMD
KSTJ 241622Z 2416/2512 VRB03KT P6SM BKN150
     FM241800 36007KT P6SM FEW050 BKN150
      TEMPO 2422/2502 4SM -TSRA SCT030CB BKN050=

USA.gov is the U.S. government's official web portal to all federal, state and local government web resources and services.